Estación Meteorológica Peña el Pijo (Robertgarden) [ 12/10/18 11:46:59 CET ]

Fecha Hora Presion(HPa) Temp (°C) Humedad % Rocio (°C) Viento ( m/s) Direccion Lluvia 1Hora(mm) Lluvia 24H(mm) LLuvia Total(mm)
2018-Oct-17 01:01:30 1009.200 9.5 82 6.5       2.07 16.57
2018-Oct-17 02:01:48 1009.000 8.5 83 5.8       1.55 16.57
2018-Oct-17 03:01:41 1008.900 8.1 85 5.7       0.51 16.57
2018-Oct-17 04:03:10 1008.800 7.3 86 5.1         16.57
2018-Oct-17 05:01:30 1008.500 6.8 86 4.6         16.57
2018-Oct-17 06:01:32 1008.300 6.3 87 4.3         16.57
2018-Oct-17 07:01:48 1008.700 5.9 87 3.9         16.57
2018-Oct-17 08:01:27 1008.600 5.6 87 3.6         16.57
2018-Oct-17 09:01:47 1008.800 5.9 88 4.1         16.57
2018-Oct-17 10:01:43 1008.900 9.9 90 8.3         16.57
2018-Oct-17 11:01:41 1009.100 16.3 79 12.7         16.57
2018-Oct-17 12:01:52 1008.600 19.4 58 10.9         16.57
2018-Oct-17 13:01:45 1008.400 16.8 56 7.9         16.57
2018-Oct-17 14:01:48 1007.800 16.9 55 7.8         16.57
2018-Oct-17 15:01:46 1006.400 21.3 48 9.8         16.57
2018-Oct-17 16:01:40 1006.200 21.6 44 8.8         16.57
2018-Oct-17 17:01:47 1005.900 19.4 48 8.1         16.57
2018-Oct-17 18:31:42 1005.300 17.1 54 7.7         16.57
2018-Oct-17 19:01:44 1005.400 16.4 57 7.8         16.57
2018-Oct-17 20:01:54 1005.800 14.1 64 7.4         16.57
2018-Oct-17 21:01:38 1006.200 11.6 72 6.7         16.57
2018-Oct-17 22:01:53 1006.200 9.8 75 5.5         16.57
2018-Oct-17 23:01:44 1006.300 8.8 78 5.1         16.57

Temperatura Máxima:21°    Temperatura Mínima:
Presión Máxima:1009.200 Hpa    Presión Mínima:1005.300 Hpa


Volver